sensor_id;sensor_type;location;lat;lon;timestamp;P1;durP1;ratioP1;P2;durP2;ratioP2
5718;SDS011;2884;47.734;9.244;2023-04-06T00:01:46;10.18;;;6.40;;
5718;SDS011;2884;47.734;9.244;2023-04-06T00:04:12;9.23;;;7.33;;
5718;SDS011;2884;47.734;9.244;2023-04-06T00:06:43;10.67;;;7.90;;
5718;SDS011;2884;47.734;9.244;2023-04-06T00:09:10;11.38;;;8.15;;
5718;SDS011;2884;47.734;9.244;2023-04-06T00:11:35;10.07;;;7.00;;
5718;SDS011;2884;47.734;9.244;2023-04-06T00:14:01;13.07;;;7.80;;
5718;SDS011;2884;47.734;9.244;2023-04-06T00:16:27;11.35;;;7.43;;
5718;SDS011;2884;47.734;9.244;2023-04-06T00:18:53;10.60;;;7.47;;
5718;SDS011;2884;47.734;9.244;2023-04-06T00:21:18;9.87;;;6.10;;
5718;SDS011;2884;47.734;9.244;2023-04-06T00:23:44;12.57;;;6.60;;
5718;SDS011;2884;47.734;9.244;2023-04-06T00:26:10;10.53;;;7.50;;
5718;SDS011;2884;47.734;9.244;2023-04-06T00:28:36;11.13;;;6.53;;
5718;SDS011;2884;47.734;9.244;2023-04-06T00:31:02;10.57;;;6.47;;
5718;SDS011;2884;47.734;9.244;2023-04-06T00:33:28;11.10;;;6.90;;
5718;SDS011;2884;47.734;9.244;2023-04-06T00:35:54;11.50;;;6.73;;
5718;SDS011;2884;47.734;9.244;2023-04-06T00:38:19;9.73;;;6.30;;
5718;SDS011;2884;47.734;9.244;2023-04-06T00:40:45;7.37;;;6.13;;
5718;SDS011;2884;47.734;9.244;2023-04-06T00:43:11;10.70;;;6.50;;
5718;SDS011;2884;47.734;9.244;2023-04-06T00:45:38;9.18;;;6.43;;
5718;SDS011;2884;47.734;9.244;2023-04-06T00:48:04;6.75;;;5.30;;
5718;SDS011;2884;47.734;9.244;2023-04-06T00:50:30;7.75;;;6.43;;
5718;SDS011;2884;47.734;9.244;2023-04-06T00:52:56;11.10;;;5.80;;
5718;SDS011;2884;47.734;9.244;2023-04-06T00:55:22;6.83;;;5.50;;
5718;SDS011;2884;47.734;9.244;2023-04-06T00:57:47;8.80;;;5.23;;
5718;SDS011;2884;47.734;9.244;2023-04-06T01:00:15;8.70;;;5.63;;
5718;SDS011;2884;47.734;9.244;2023-04-06T01:02:41;8.13;;;5.60;;
5718;SDS011;2884;47.734;9.244;2023-04-06T01:05:07;8.20;;;6.10;;
5718;SDS011;2884;47.734;9.244;2023-04-06T01:07:32;10.33;;;6.10;;
5718;SDS011;2884;47.734;9.244;2023-04-06T01:09:58;9.60;;;6.30;;
5718;SDS011;2884;47.734;9.244;2023-04-06T01:12:24;9.03;;;6.30;;
5718;SDS011;2884;47.734;9.244;2023-04-06T01:14:50;8.73;;;6.25;;
5718;SDS011;2884;47.734;9.244;2023-04-06T01:17:15;9.80;;;6.90;;
5718;SDS011;2884;47.734;9.244;2023-04-06T01:19:41;9.20;;;6.53;;
5718;SDS011;2884;47.734;9.244;2023-04-06T01:22:07;8.07;;;6.23;;
5718;SDS011;2884;47.734;9.244;2023-04-06T01:24:33;9.37;;;6.70;;
5718;SDS011;2884;47.734;9.244;2023-04-06T01:26:58;7.47;;;5.90;;
5718;SDS011;2884;47.734;9.244;2023-04-06T01:29:24;11.20;;;7.30;;
5718;SDS011;2884;47.734;9.244;2023-04-06T01:31:50;9.90;;;7.10;;
5718;SDS011;2884;47.734;9.244;2023-04-06T01:34:15;10.53;;;6.87;;
5718;SDS011;2884;47.734;9.244;2023-04-06T01:36:41;11.20;;;6.50;;
5718;SDS011;2884;47.734;9.244;2023-04-06T01:39:07;17.57;;;7.80;;
5718;SDS011;2884;47.734;9.244;2023-04-06T01:41:33;11.00;;;7.67;;
5718;SDS011;2884;47.734;9.244;2023-04-06T01:43:59;9.48;;;7.43;;
5718;SDS011;2884;47.734;9.244;2023-04-06T01:46:25;11.17;;;7.90;;
5718;SDS011;2884;47.734;9.244;2023-04-06T01:48:51;9.88;;;6.85;;
5718;SDS011;2884;47.734;9.244;2023-04-06T01:51:17;10.50;;;7.20;;
5718;SDS011;2884;47.734;9.244;2023-04-06T01:53:43;15.10;;;8.40;;
5718;SDS011;2884;47.734;9.244;2023-04-06T01:56:08;11.20;;;7.30;;
5718;SDS011;2884;47.734;9.244;2023-04-06T01:58:37;13.27;;;8.68;;
5718;SDS011;2884;47.734;9.244;2023-04-06T02:01:02;11.70;;;7.67;;
5718;SDS011;2884;47.734;9.244;2023-04-06T02:03:28;18.50;;;8.87;;
5718;SDS011;2884;47.734;9.244;2023-04-06T02:05:54;12.87;;;8.60;;
5718;SDS011;2884;47.734;9.244;2023-04-06T02:08:19;20.80;;;8.03;;
5718;SDS011;2884;47.734;9.244;2023-04-06T02:10:45;11.93;;;8.67;;
5718;SDS011;2884;47.734;9.244;2023-04-06T02:13:11;20.70;;;8.40;;
5718;SDS011;2884;47.734;9.244;2023-04-06T02:15:39;13.05;;;7.75;;
5718;SDS011;2884;47.734;9.244;2023-04-06T02:18:05;11.20;;;7.73;;
5718;SDS011;2884;47.734;9.244;2023-04-06T02:20:30;16.20;;;7.90;;
5718;SDS011;2884;47.734;9.244;2023-04-06T02:22:59;10.13;;;7.93;;
5718;SDS011;2884;47.734;9.244;2023-04-06T02:25:27;10.38;;;6.95;;
5718;SDS011;2884;47.734;9.244;2023-04-06T02:27:53;9.98;;;6.57;;
5718;SDS011;2884;47.734;9.244;2023-04-06T02:30:19;12.25;;;7.20;;
5718;SDS011;2884;47.734;9.244;2023-04-06T02:32:45;11.10;;;6.90;;
5718;SDS011;2884;47.734;9.244;2023-04-06T02:35:10;13.53;;;6.83;;
5718;SDS011;2884;47.734;9.244;2023-04-06T02:37:36;11.23;;;6.67;;
5718;SDS011;2884;47.734;9.244;2023-04-06T02:40:01;9.30;;;6.30;;
5718;SDS011;2884;47.734;9.244;2023-04-06T02:42:29;12.95;;;8.10;;
5718;SDS011;2884;47.734;9.244;2023-04-06T02:44:58;10.70;;;7.23;;
5718;SDS011;2884;47.734;9.244;2023-04-06T02:47:23;13.73;;;7.18;;
5718;SDS011;2884;47.734;9.244;2023-04-06T02:49:54;10.32;;;7.50;;
5718;SDS011;2884;47.734;9.244;2023-04-06T02:52:19;10.20;;;7.20;;
5718;SDS011;2884;47.734;9.244;2023-04-06T02:54:45;9.47;;;7.30;;
5718;SDS011;2884;47.734;9.244;2023-04-06T02:57:10;14.33;;;8.43;;
5718;SDS011;2884;47.734;9.244;2023-04-06T02:59:39;9.80;;;7.70;;
5718;SDS011;2884;47.734;9.244;2023-04-06T03:02:05;8.45;;;6.45;;
5718;SDS011;2884;47.734;9.244;2023-04-06T03:04:30;14.63;;;7.23;;
5718;SDS011;2884;47.734;9.244;2023-04-06T03:06:56;11.20;;;7.77;;
5718;SDS011;2884;47.734;9.244;2023-04-06T03:09:24;12.57;;;7.70;;
5718;SDS011;2884;47.734;9.244;2023-04-06T03:11:50;11.13;;;7.05;;
5718;SDS011;2884;47.734;9.244;2023-04-06T03:14:19;14.13;;;8.10;;
5718;SDS011;2884;47.734;9.244;2023-04-06T03:16:49;13.40;;;8.30;;
5718;SDS011;2884;47.734;9.244;2023-04-06T03:19:15;10.35;;;7.18;;
5718;SDS011;2884;47.734;9.244;2023-04-06T03:21:41;13.13;;;7.03;;
5718;SDS011;2884;47.734;9.244;2023-04-06T03:24:07;12.77;;;6.75;;
5718;SDS011;2884;47.734;9.244;2023-04-06T03:26:33;9.65;;;6.43;;
5718;SDS011;2884;47.734;9.244;2023-04-06T03:28:59;8.80;;;6.67;;
5718;SDS011;2884;47.734;9.244;2023-04-06T03:31:25;8.53;;;6.07;;
5718;SDS011;2884;47.734;9.244;2023-04-06T03:34:10;10.57;;;6.70;;
5718;SDS011;2884;47.734;9.244;2023-04-06T03:36:35;10.73;;;6.80;;
5718;SDS011;2884;47.734;9.244;2023-04-06T03:39:01;10.30;;;7.27;;
5718;SDS011;2884;47.734;9.244;2023-04-06T03:41:26;10.20;;;7.77;;
5718;SDS011;2884;47.734;9.244;2023-04-06T03:43:52;13.30;;;7.40;;
5718;SDS011;2884;47.734;9.244;2023-04-06T03:46:18;10.47;;;6.73;;
5718;SDS011;2884;47.734;9.244;2023-04-06T03:48:45;10.47;;;7.40;;
5718;SDS011;2884;47.734;9.244;2023-04-06T03:51:13;11.98;;;6.85;;
5718;SDS011;2884;47.734;9.244;2023-04-06T03:53:38;9.67;;;7.20;;
5718;SDS011;2884;47.734;9.244;2023-04-06T03:56:04;15.20;;;7.93;;
5718;SDS011;2884;47.734;9.244;2023-04-06T03:58:30;12.75;;;7.85;;
5718;SDS011;2884;47.734;9.244;2023-04-06T04:00:56;12.60;;;7.97;;
5718;SDS011;2884;47.734;9.244;2023-04-06T04:03:21;13.30;;;8.40;;
5718;SDS011;2884;47.734;9.244;2023-04-06T04:05:49;13.85;;;8.02;;
5718;SDS011;2884;47.734;9.244;2023-04-06T04:08:15;16.33;;;8.43;;
5718;SDS011;2884;47.734;9.244;2023-04-06T04:10:41;11.97;;;7.77;;
5718;SDS011;2884;47.734;9.244;2023-04-06T04:13:06;13.47;;;7.53;;
5718;SDS011;2884;47.734;9.244;2023-04-06T04:15:32;16.07;;;8.10;;
5718;SDS011;2884;47.734;9.244;2023-04-06T04:17:57;14.43;;;8.10;;
5718;SDS011;2884;47.734;9.244;2023-04-06T04:20:23;11.37;;;6.87;;
5718;SDS011;2884;47.734;9.244;2023-04-06T04:22:48;10.23;;;7.57;;
5718;SDS011;2884;47.734;9.244;2023-04-06T04:25:14;9.77;;;7.40;;
5718;SDS011;2884;47.734;9.244;2023-04-06T04:27:40;10.90;;;7.40;;
5718;SDS011;2884;47.734;9.244;2023-04-06T04:30:06;10.30;;;7.10;;
5718;SDS011;2884;47.734;9.244;2023-04-06T04:32:33;12.50;;;7.20;;
5718;SDS011;2884;47.734;9.244;2023-04-06T04:34:59;11.10;;;7.78;;
5718;SDS011;2884;47.734;9.244;2023-04-06T04:37:25;13.20;;;9.13;;
5718;SDS011;2884;47.734;9.244;2023-04-06T04:39:50;16.17;;;9.10;;
5718;SDS011;2884;47.734;9.244;2023-04-06T04:42:16;14.97;;;9.17;;
5718;SDS011;2884;47.734;9.244;2023-04-06T04:44:42;12.07;;;7.90;;
5718;SDS011;2884;47.734;9.244;2023-04-06T04:47:07;9.90;;;6.93;;
5718;SDS011;2884;47.734;9.244;2023-04-06T04:49:33;10.60;;;7.50;;
5718;SDS011;2884;47.734;9.244;2023-04-06T04:51:59;16.43;;;8.67;;
5718;SDS011;2884;47.734;9.244;2023-04-06T04:54:24;14.17;;;8.90;;
5718;SDS011;2884;47.734;9.244;2023-04-06T04:56:50;17.67;;;8.60;;
5718;SDS011;2884;47.734;9.244;2023-04-06T04:59:16;10.63;;;8.73;;
5718;SDS011;2884;47.734;9.244;2023-04-06T05:01:42;13.93;;;8.97;;
5718;SDS011;2884;47.734;9.244;2023-04-06T05:04:07;13.73;;;8.23;;
5718;SDS011;2884;47.734;9.244;2023-04-06T05:06:33;15.33;;;9.23;;
5718;SDS011;2884;47.734;9.244;2023-04-06T05:08:58;12.80;;;8.67;;
5718;SDS011;2884;47.734;9.244;2023-04-06T05:11:24;13.53;;;7.83;;
5718;SDS011;2884;47.734;9.244;2023-04-06T05:13:51;11.45;;;8.15;;
5718;SDS011;2884;47.734;9.244;2023-04-06T05:16:17;9.63;;;7.57;;
5718;SDS011;2884;47.734;9.244;2023-04-06T05:18:42;13.30;;;7.87;;
5718;SDS011;2884;47.734;9.244;2023-04-06T05:21:08;11.33;;;7.93;;
5718;SDS011;2884;47.734;9.244;2023-04-06T05:23:35;12.80;;;9.43;;
5718;SDS011;2884;47.734;9.244;2023-04-06T05:26:01;17.63;;;8.27;;
5718;SDS011;2884;47.734;9.244;2023-04-06T05:28:26;12.00;;;8.13;;
5718;SDS011;2884;47.734;9.244;2023-04-06T05:30:52;11.53;;;7.63;;
5718;SDS011;2884;47.734;9.244;2023-04-06T05:33:18;15.35;;;9.20;;
5718;SDS011;2884;47.734;9.244;2023-04-06T05:35:44;11.93;;;7.40;;
5718;SDS011;2884;47.734;9.244;2023-04-06T05:38:09;12.93;;;7.47;;
5718;SDS011;2884;47.734;9.244;2023-04-06T05:40:36;12.57;;;8.00;;
5718;SDS011;2884;47.734;9.244;2023-04-06T05:43:03;18.95;;;8.05;;
5718;SDS011;2884;47.734;9.244;2023-04-06T05:45:29;12.93;;;7.70;;
5718;SDS011;2884;47.734;9.244;2023-04-06T05:47:55;15.48;;;8.32;;
5718;SDS011;2884;47.734;9.244;2023-04-06T05:50:21;11.87;;;7.80;;
5718;SDS011;2884;47.734;9.244;2023-04-06T05:52:47;14.05;;;8.07;;
5718;SDS011;2884;47.734;9.244;2023-04-06T05:55:13;10.80;;;7.23;;
5718;SDS011;2884;47.734;9.244;2023-04-06T05:57:38;10.80;;;7.90;;
5718;SDS011;2884;47.734;9.244;2023-04-06T06:00:05;9.90;;;7.70;;
5718;SDS011;2884;47.734;9.244;2023-04-06T06:02:34;9.75;;;7.15;;
5718;SDS011;2884;47.734;9.244;2023-04-06T06:04:59;9.10;;;7.40;;
5718;SDS011;2884;47.734;9.244;2023-04-06T06:07:25;11.23;;;7.27;;
5718;SDS011;2884;47.734;9.244;2023-04-06T06:09:51;14.50;;;8.87;;
5718;SDS011;2884;47.734;9.244;2023-04-06T06:12:16;13.13;;;7.93;;
5718;SDS011;2884;47.734;9.244;2023-04-06T06:14:42;12.60;;;8.13;;
5718;SDS011;2884;47.734;9.244;2023-04-06T06:17:08;10.43;;;7.70;;
5718;SDS011;2884;47.734;9.244;2023-04-06T06:19:33;15.00;;;8.57;;
5718;SDS011;2884;47.734;9.244;2023-04-06T06:21:59;12.33;;;8.50;;
5718;SDS011;2884;47.734;9.244;2023-04-06T06:24:27;16.67;;;8.97;;
5718;SDS011;2884;47.734;9.244;2023-04-06T06:26:53;11.37;;;7.93;;
5718;SDS011;2884;47.734;9.244;2023-04-06T06:29:19;12.40;;;8.80;;
5718;SDS011;2884;47.734;9.244;2023-04-06T06:31:44;11.63;;;8.33;;
5718;SDS011;2884;47.734;9.244;2023-04-06T06:34:10;13.03;;;8.50;;
5718;SDS011;2884;47.734;9.244;2023-04-06T06:36:38;11.03;;;7.60;;
5718;SDS011;2884;47.734;9.244;2023-04-06T06:39:03;11.07;;;8.60;;
5718;SDS011;2884;47.734;9.244;2023-04-06T06:41:29;12.57;;;9.40;;
5718;SDS011;2884;47.734;9.244;2023-04-06T06:43:55;12.97;;;8.40;;
5718;SDS011;2884;47.734;9.244;2023-04-06T06:46:20;18.90;;;11.00;;
5718;SDS011;2884;47.734;9.244;2023-04-06T06:48:46;21.00;;;11.40;;
5718;SDS011;2884;47.734;9.244;2023-04-06T06:51:12;11.17;;;8.30;;
5718;SDS011;2884;47.734;9.244;2023-04-06T06:53:37;14.90;;;8.43;;
5718;SDS011;2884;47.734;9.244;2023-04-06T06:56:03;12.73;;;8.70;;
5718;SDS011;2884;47.734;9.244;2023-04-06T06:58:34;10.43;;;8.00;;
5718;SDS011;2884;47.734;9.244;2023-04-06T07:01:00;9.90;;;7.40;;
5718;SDS011;2884;47.734;9.244;2023-04-06T07:03:25;8.50;;;7.33;;
5718;SDS011;2884;47.734;9.244;2023-04-06T07:05:51;13.50;;;8.13;;
5718;SDS011;2884;47.734;9.244;2023-04-06T07:08:20;24.40;;;7.47;;
5718;SDS011;2884;47.734;9.244;2023-04-06T07:10:46;10.23;;;7.00;;
5718;SDS011;2884;47.734;9.244;2023-04-06T07:13:13;8.60;;;6.90;;
5718;SDS011;2884;47.734;9.244;2023-04-06T07:15:43;13.07;;;7.63;;
5718;SDS011;2884;47.734;9.244;2023-04-06T07:18:08;11.70;;;7.00;;
5718;SDS011;2884;47.734;9.244;2023-04-06T07:20:34;10.90;;;7.33;;
5718;SDS011;2884;47.734;9.244;2023-04-06T07:23:00;9.80;;;7.27;;
5718;SDS011;2884;47.734;9.244;2023-04-06T07:25:25;8.80;;;6.07;;
5718;SDS011;2884;47.734;9.244;2023-04-06T07:27:51;8.57;;;6.70;;
5718;SDS011;2884;47.734;9.244;2023-04-06T07:30:17;7.17;;;6.10;;
5718;SDS011;2884;47.734;9.244;2023-04-06T07:32:43;9.93;;;6.50;;
5718;SDS011;2884;47.734;9.244;2023-04-06T07:35:10;11.37;;;7.03;;
5718;SDS011;2884;47.734;9.244;2023-04-06T07:37:36;8.10;;;6.93;;
5718;SDS011;2884;47.734;9.244;2023-04-06T07:40:01;7.77;;;6.03;;
5718;SDS011;2884;47.734;9.244;2023-04-06T07:42:27;10.67;;;7.30;;
5718;SDS011;2884;47.734;9.244;2023-04-06T07:44:52;7.40;;;6.63;;
5718;SDS011;2884;47.734;9.244;2023-04-06T07:47:18;10.43;;;7.37;;
5718;SDS011;2884;47.734;9.244;2023-04-06T07:49:44;13.37;;;8.57;;
5718;SDS011;2884;47.734;9.244;2023-04-06T07:52:10;14.60;;;8.30;;
5718;SDS011;2884;47.734;9.244;2023-04-06T07:54:35;13.40;;;8.97;;
5718;SDS011;2884;47.734;9.244;2023-04-06T07:57:01;13.53;;;8.57;;
5718;SDS011;2884;47.734;9.244;2023-04-06T07:59:27;10.83;;;8.00;;
5718;SDS011;2884;47.734;9.244;2023-04-06T08:01:52;12.83;;;8.83;;
5718;SDS011;2884;47.734;9.244;2023-04-06T08:04:18;13.93;;;8.07;;
5718;SDS011;2884;47.734;9.244;2023-04-06T08:06:43;11.80;;;7.50;;
5718;SDS011;2884;47.734;9.244;2023-04-06T08:09:09;11.53;;;7.97;;
5718;SDS011;2884;47.734;9.244;2023-04-06T08:11:35;10.10;;;7.80;;
5718;SDS011;2884;47.734;9.244;2023-04-06T08:14:00;11.90;;;8.17;;
5718;SDS011;2884;47.734;9.244;2023-04-06T08:16:26;14.40;;;9.60;;
5718;SDS011;2884;47.734;9.244;2023-04-06T08:18:52;11.90;;;8.50;;
5718;SDS011;2884;47.734;9.244;2023-04-06T08:21:17;11.50;;;7.80;;
5718;SDS011;2884;47.734;9.244;2023-04-06T08:23:43;12.40;;;8.40;;
5718;SDS011;2884;47.734;9.244;2023-04-06T08:26:09;10.00;;;7.93;;
5718;SDS011;2884;47.734;9.244;2023-04-06T08:28:34;18.73;;;7.83;;
5718;SDS011;2884;47.734;9.244;2023-04-06T08:31:04;8.43;;;7.53;;
5718;SDS011;2884;47.734;9.244;2023-04-06T08:33:30;10.87;;;7.27;;
5718;SDS011;2884;47.734;9.244;2023-04-06T08:35:56;10.07;;;7.63;;
5718;SDS011;2884;47.734;9.244;2023-04-06T08:38:22;11.43;;;8.17;;
5718;SDS011;2884;47.734;9.244;2023-04-06T08:40:47;9.13;;;7.63;;
5718;SDS011;2884;47.734;9.244;2023-04-06T08:43:16;12.40;;;8.33;;
5718;SDS011;2884;47.734;9.244;2023-04-06T08:45:42;9.80;;;8.10;;
5718;SDS011;2884;47.734;9.244;2023-04-06T08:48:08;11.47;;;7.73;;
5718;SDS011;2884;47.734;9.244;2023-04-06T08:50:35;9.67;;;7.50;;
5718;SDS011;2884;47.734;9.244;2023-04-06T08:53:00;10.37;;;8.50;;
5718;SDS011;2884;47.734;9.244;2023-04-06T08:55:26;8.13;;;6.93;;
5718;SDS011;2884;47.734;9.244;2023-04-06T08:57:52;11.60;;;8.60;;
5718;SDS011;2884;47.734;9.244;2023-04-06T09:00:21;10.90;;;7.10;;
5718;SDS011;2884;47.734;9.244;2023-04-06T09:02:48;13.50;;;8.53;;
5718;SDS011;2884;47.734;9.244;2023-04-06T09:05:14;9.27;;;7.63;;
5718;SDS011;2884;47.734;9.244;2023-04-06T09:07:40;12.33;;;8.03;;
5718;SDS011;2884;47.734;9.244;2023-04-06T09:10:06;9.60;;;7.90;;
5718;SDS011;2884;47.734;9.244;2023-04-06T09:12:33;10.90;;;7.90;;
5718;SDS011;2884;47.734;9.244;2023-04-06T09:15:00;12.47;;;8.60;;
5718;SDS011;2884;47.734;9.244;2023-04-06T09:17:27;10.47;;;7.90;;
5718;SDS011;2884;47.734;9.244;2023-04-06T09:19:54;13.10;;;8.60;;
5718;SDS011;2884;47.734;9.244;2023-04-06T09:22:20;9.50;;;7.20;;
5718;SDS011;2884;47.734;9.244;2023-04-06T09:24:46;18.03;;;7.43;;
5718;SDS011;2884;47.734;9.244;2023-04-06T09:27:13;12.70;;;7.70;;
5718;SDS011;2884;47.734;9.244;2023-04-06T09:29:40;10.27;;;7.77;;
5718;SDS011;2884;47.734;9.244;2023-04-06T09:32:07;9.80;;;7.60;;
5718;SDS011;2884;47.734;9.244;2023-04-06T09:34:40;12.50;;;7.70;;
5718;SDS011;2884;47.734;9.244;2023-04-06T09:37:15;9.60;;;7.90;;
5718;SDS011;2884;47.734;9.244;2023-04-06T09:39:42;10.87;;;8.03;;
5718;SDS011;2884;47.734;9.244;2023-04-06T09:42:08;12.77;;;8.47;;
5718;SDS011;2884;47.734;9.244;2023-04-06T09:44:33;9.80;;;7.40;;
5718;SDS011;2884;47.734;9.244;2023-04-06T09:46:59;11.93;;;8.40;;
5718;SDS011;2884;47.734;9.244;2023-04-06T09:49:30;9.60;;;7.87;;
5718;SDS011;2884;47.734;9.244;2023-04-06T09:51:59;13.80;;;8.10;;
5718;SDS011;2884;47.734;9.244;2023-04-06T09:54:28;12.57;;;7.23;;
5718;SDS011;2884;47.734;9.244;2023-04-06T09:56:56;9.40;;;8.13;;
5718;SDS011;2884;47.734;9.244;2023-04-06T10:07:59;9.57;;;7.60;;
5718;SDS011;2884;47.734;9.244;2023-04-06T10:10:29;12.40;;;8.10;;
5718;SDS011;2884;47.734;9.244;2023-04-06T10:12:55;8.93;;;7.87;;
5718;SDS011;2884;47.734;9.244;2023-04-06T10:15:21;12.57;;;8.90;;
5718;SDS011;2884;47.734;9.244;2023-04-06T10:17:47;11.20;;;8.23;;
5718;SDS011;2884;47.734;9.244;2023-04-06T10:21:01;9.87;;;8.10;;
5718;SDS011;2884;47.734;9.244;2023-04-06T10:23:16;11.37;;;8.27;;
5718;SDS011;2884;47.734;9.244;2023-04-06T10:25:53;10.50;;;7.30;;
5718;SDS011;2884;47.734;9.244;2023-04-06T10:28:20;11.10;;;7.40;;
5718;SDS011;2884;47.734;9.244;2023-04-06T10:30:46;9.60;;;7.70;;
5718;SDS011;2884;47.734;9.244;2023-04-06T10:35:41;14.83;;;8.53;;
5718;SDS011;2884;47.734;9.244;2023-04-06T10:38:07;13.33;;;8.50;;
5718;SDS011;2884;47.734;9.244;2023-04-06T10:40:36;12.50;;;8.57;;
5718;SDS011;2884;47.734;9.244;2023-04-06T10:43:07;15.10;;;8.03;;
5718;SDS011;2884;47.734;9.244;2023-04-06T10:45:54;11.33;;;7.70;;
5718;SDS011;2884;47.734;9.244;2023-04-06T10:48:21;12.07;;;8.47;;
5718;SDS011;2884;47.734;9.244;2023-04-06T10:50:50;11.60;;;8.60;;
5718;SDS011;2884;47.734;9.244;2023-04-06T10:53:20;14.03;;;7.83;;
5718;SDS011;2884;47.734;9.244;2023-04-06T10:55:48;11.27;;;8.47;;
5718;SDS011;2884;47.734;9.244;2023-04-06T10:58:15;12.73;;;8.50;;
5718;SDS011;2884;47.734;9.244;2023-04-06T11:00:47;12.20;;;8.30;;
5718;SDS011;2884;47.734;9.244;2023-04-06T11:03:14;8.03;;;7.20;;
5718;SDS011;2884;47.734;9.244;2023-04-06T11:05:43;11.27;;;8.57;;
5718;SDS011;2884;47.734;9.244;2023-04-06T11:08:10;8.47;;;7.07;;
5718;SDS011;2884;47.734;9.244;2023-04-06T11:10:47;10.00;;;7.60;;
5718;SDS011;2884;47.734;9.244;2023-04-06T11:13:14;12.43;;;7.97;;
5718;SDS011;2884;47.734;9.244;2023-04-06T11:15:40;9.80;;;7.83;;
5718;SDS011;2884;47.734;9.244;2023-04-06T11:18:05;20.13;;;8.90;;
5718;SDS011;2884;47.734;9.244;2023-04-06T11:20:31;11.20;;;7.20;;
5718;SDS011;2884;47.734;9.244;2023-04-06T11:22:56;9.93;;;7.30;;
5718;SDS011;2884;47.734;9.244;2023-04-06T11:25:24;9.80;;;7.30;;
5718;SDS011;2884;47.734;9.244;2023-04-06T11:27:51;8.93;;;7.43;;
5718;SDS011;2884;47.734;9.244;2023-04-06T11:30:17;9.93;;;8.27;;
5718;SDS011;2884;47.734;9.244;2023-04-06T11:32:44;14.23;;;7.60;;
5718;SDS011;2884;47.734;9.244;2023-04-06T11:35:20;9.80;;;7.10;;
5718;SDS011;2884;47.734;9.244;2023-04-06T11:37:50;11.40;;;6.70;;
5718;SDS011;2884;47.734;9.244;2023-04-06T11:40:20;12.70;;;8.43;;
5718;SDS011;2884;47.734;9.244;2023-04-06T11:42:53;9.53;;;7.30;;
5718;SDS011;2884;47.734;9.244;2023-04-06T11:45:19;13.03;;;6.80;;
5718;SDS011;2884;47.734;9.244;2023-04-06T11:47:45;9.10;;;6.70;;
5718;SDS011;2884;47.734;9.244;2023-04-06T11:50:13;8.37;;;6.30;;
5718;SDS011;2884;47.734;9.244;2023-04-06T11:52:40;8.63;;;7.30;;
5718;SDS011;2884;47.734;9.244;2023-04-06T11:55:13;7.40;;;6.60;;
5718;SDS011;2884;47.734;9.244;2023-04-06T11:57:40;11.60;;;7.80;;
5718;SDS011;2884;47.734;9.244;2023-04-06T12:00:07;9.20;;;6.97;;
5718;SDS011;2884;47.734;9.244;2023-04-06T12:02:34;12.10;;;6.33;;
5718;SDS011;2884;47.734;9.244;2023-04-06T12:05:01;8.83;;;6.50;;
5718;SDS011;2884;47.734;9.244;2023-04-06T12:07:28;10.60;;;7.03;;
5718;SDS011;2884;47.734;9.244;2023-04-06T12:09:54;13.73;;;7.00;;
5718;SDS011;2884;47.734;9.244;2023-04-06T12:12:20;9.27;;;6.60;;
5718;SDS011;2884;47.734;9.244;2023-04-06T12:14:46;6.20;;;5.60;;
5718;SDS011;2884;47.734;9.244;2023-04-06T12:17:11;8.97;;;6.10;;
5718;SDS011;2884;47.734;9.244;2023-04-06T12:19:37;8.47;;;6.03;;
5718;SDS011;2884;47.734;9.244;2023-04-06T12:22:02;9.97;;;6.43;;
5718;SDS011;2884;47.734;9.244;2023-04-06T12:24:28;10.50;;;5.90;;
5718;SDS011;2884;47.734;9.244;2023-04-06T12:26:54;9.53;;;6.17;;
5718;SDS011;2884;47.734;9.244;2023-04-06T12:29:20;7.03;;;5.60;;
5718;SDS011;2884;47.734;9.244;2023-04-06T12:31:45;9.13;;;5.53;;
5718;SDS011;2884;47.734;9.244;2023-04-06T12:34:11;8.23;;;5.93;;
5718;SDS011;2884;47.734;9.244;2023-04-06T12:36:37;9.57;;;6.40;;
5718;SDS011;2884;47.734;9.244;2023-04-06T12:39:04;8.03;;;5.57;;
5718;SDS011;2884;47.734;9.244;2023-04-06T12:41:30;7.60;;;5.50;;
5718;SDS011;2884;47.734;9.244;2023-04-06T12:43:55;7.00;;;5.37;;
5718;SDS011;2884;47.734;9.244;2023-04-06T12:46:21;6.47;;;5.33;;
5718;SDS011;2884;47.734;9.244;2023-04-06T12:48:48;20.20;;;5.60;;
5718;SDS011;2884;47.734;9.244;2023-04-06T12:51:13;6.17;;;5.27;;
5718;SDS011;2884;47.734;9.244;2023-04-06T12:53:39;7.53;;;4.87;;
5718;SDS011;2884;47.734;9.244;2023-04-06T12:56:14;10.40;;;5.93;;
5718;SDS011;2884;47.734;9.244;2023-04-06T12:58:42;8.00;;;5.63;;
5718;SDS011;2884;47.734;9.244;2023-04-06T13:01:08;16.73;;;6.40;;
5718;SDS011;2884;47.734;9.244;2023-04-06T13:03:34;7.20;;;5.50;;
5718;SDS011;2884;47.734;9.244;2023-04-06T13:06:00;9.20;;;6.30;;
5718;SDS011;2884;47.734;9.244;2023-04-06T13:08:27;7.00;;;5.90;;
5718;SDS011;2884;47.734;9.244;2023-04-06T13:10:52;9.60;;;5.20;;
5718;SDS011;2884;47.734;9.244;2023-04-06T13:13:28;8.03;;;6.23;;
5718;SDS011;2884;47.734;9.244;2023-04-06T13:15:58;9.63;;;5.40;;
5718;SDS011;2884;47.734;9.244;2023-04-06T13:18:30;7.13;;;5.40;;
5718;SDS011;2884;47.734;9.244;2023-04-06T13:20:56;8.93;;;5.77;;
5718;SDS011;2884;47.734;9.244;2023-04-06T13:23:22;6.20;;;4.70;;
5718;SDS011;2884;47.734;9.244;2023-04-06T13:25:56;9.80;;;5.30;;
5718;SDS011;2884;47.734;9.244;2023-04-06T13:28:31;6.30;;;5.23;;
5718;SDS011;2884;47.734;9.244;2023-04-06T13:30:58;6.90;;;5.00;;
5718;SDS011;2884;47.734;9.244;2023-04-06T13:33:25;6.87;;;5.40;;
5718;SDS011;2884;47.734;9.244;2023-04-06T13:35:51;8.43;;;4.53;;
5718;SDS011;2884;47.734;9.244;2023-04-06T13:38:17;6.40;;;5.50;;
5718;SDS011;2884;47.734;9.244;2023-04-06T13:40:42;7.50;;;5.30;;
5718;SDS011;2884;47.734;9.244;2023-04-06T13:43:08;8.63;;;5.87;;
5718;SDS011;2884;47.734;9.244;2023-04-06T13:45:33;6.40;;;5.50;;
5718;SDS011;2884;47.734;9.244;2023-04-06T13:47:59;7.53;;;5.23;;
5718;SDS011;2884;47.734;9.244;2023-04-06T13:50:25;6.20;;;4.87;;
5718;SDS011;2884;47.734;9.244;2023-04-06T13:52:51;6.60;;;4.80;;
5718;SDS011;2884;47.734;9.244;2023-04-06T13:55:17;8.33;;;5.67;;
5718;SDS011;2884;47.734;9.244;2023-04-06T13:57:43;5.33;;;4.67;;
5718;SDS011;2884;47.734;9.244;2023-04-06T14:00:08;10.10;;;4.77;;
5718;SDS011;2884;47.734;9.244;2023-04-06T14:02:36;5.60;;;4.63;;
5718;SDS011;2884;47.734;9.244;2023-04-06T14:05:02;9.63;;;6.17;;
5718;SDS011;2884;47.734;9.244;2023-04-06T14:07:28;9.40;;;5.73;;
5718;SDS011;2884;47.734;9.244;2023-04-06T14:09:53;11.63;;;5.70;;
5718;SDS011;2884;47.734;9.244;2023-04-06T14:12:19;9.07;;;5.70;;
5718;SDS011;2884;47.734;9.244;2023-04-06T14:14:45;8.80;;;6.47;;
5718;SDS011;2884;47.734;9.244;2023-04-06T14:17:11;9.50;;;5.90;;
5718;SDS011;2884;47.734;9.244;2023-04-06T14:19:36;10.70;;;6.80;;
5718;SDS011;2884;47.734;9.244;2023-04-06T14:22:02;8.70;;;6.40;;
5718;SDS011;2884;47.734;9.244;2023-04-06T14:24:29;17.13;;;6.20;;
5718;SDS011;2884;47.734;9.244;2023-04-06T14:26:55;9.50;;;6.40;;
5718;SDS011;2884;47.734;9.244;2023-04-06T14:29:21;11.87;;;7.30;;
5718;SDS011;2884;47.734;9.244;2023-04-06T14:31:47;9.97;;;6.60;;
5718;SDS011;2884;47.734;9.244;2023-04-06T14:34:13;12.40;;;6.93;;
5718;SDS011;2884;47.734;9.244;2023-04-06T14:36:38;9.30;;;6.23;;
5718;SDS011;2884;47.734;9.244;2023-04-06T14:39:04;10.20;;;5.93;;
5718;SDS011;2884;47.734;9.244;2023-04-06T14:41:31;10.80;;;5.80;;
5718;SDS011;2884;47.734;9.244;2023-04-06T14:43:57;6.90;;;4.90;;
5718;SDS011;2884;47.734;9.244;2023-04-06T14:46:23;8.50;;;5.60;;
5718;SDS011;2884;47.734;9.244;2023-04-06T14:48:49;11.57;;;5.87;;
5718;SDS011;2884;47.734;9.244;2023-04-06T14:51:14;11.10;;;5.87;;
5718;SDS011;2884;47.734;9.244;2023-04-06T14:53:40;9.40;;;5.40;;
5718;SDS011;2884;47.734;9.244;2023-04-06T14:56:06;9.50;;;6.10;;
5718;SDS011;2884;47.734;9.244;2023-04-06T14:58:32;8.40;;;6.03;;
5718;SDS011;2884;47.734;9.244;2023-04-06T15:00:58;7.87;;;5.03;;
5718;SDS011;2884;47.734;9.244;2023-04-06T15:03:27;7.27;;;5.33;;
5718;SDS011;2884;47.734;9.244;2023-04-06T15:05:54;9.07;;;5.83;;
5718;SDS011;2884;47.734;9.244;2023-04-06T15:08:23;11.70;;;5.80;;
5718;SDS011;2884;47.734;9.244;2023-04-06T15:10:50;8.53;;;5.90;;
5718;SDS011;2884;47.734;9.244;2023-04-06T15:13:16;10.67;;;6.60;;
5718;SDS011;2884;47.734;9.244;2023-04-06T15:15:42;8.80;;;5.87;;